createdAt,value
2022-11-25T00:01:19.949Z,6.76
2022-11-25T00:03:50.360Z,6.70
2022-11-25T00:06:20.253Z,6.66
2022-11-25T00:08:50.414Z,6.64
2022-11-25T00:11:19.204Z,6.69
2022-11-25T00:13:48.375Z,6.74
2022-11-25T00:16:17.876Z,6.77
2022-11-25T00:18:46.696Z,6.81
2022-11-25T00:21:19.234Z,6.84
2022-11-25T00:23:52.368Z,6.85
2022-11-25T00:26:20.424Z,6.87
2022-11-25T00:28:49.122Z,6.89
2022-11-25T00:31:18.671Z,6.89
2022-11-25T00:33:47.456Z,6.89
2022-11-25T00:36:18.914Z,6.86
2022-11-25T00:38:47.412Z,6.83
2022-11-25T00:41:32.693Z,6.81
2022-11-25T00:44:18.371Z,6.72
2022-11-25T00:46:46.395Z,6.54
2022-11-25T00:49:14.559Z,6.38
2022-11-25T00:51:43.878Z,6.32
2022-11-25T00:54:12.170Z,6.28
2022-11-25T00:56:40.997Z,6.11
2022-11-25T00:59:09.360Z,6.05
2022-11-25T01:01:39.408Z,5.92
2022-11-25T01:04:07.788Z,5.79
2022-11-25T01:06:36.235Z,5.73
2022-11-25T01:09:06.087Z,5.72
2022-11-25T01:11:34.022Z,5.72
2022-11-25T01:14:02.434Z,5.64
2022-11-25T01:16:31.336Z,5.72
2022-11-25T01:19:00.160Z,5.76
2022-11-25T01:21:29.752Z,5.88
2022-11-25T01:24:00.114Z,5.91
2022-11-25T01:26:30.225Z,5.92
2022-11-25T01:28:59.564Z,5.93
2022-11-25T01:31:29.599Z,5.97
2022-11-25T01:33:59.845Z,6.02
2022-11-25T01:36:28.568Z,6.03
2022-11-25T01:38:58.262Z,6.01
2022-11-25T01:41:28.230Z,6.04
2022-11-25T01:44:06.082Z,6.05
2022-11-25T01:46:42.388Z,6.04
2022-11-25T01:49:13.918Z,6.03
2022-11-25T01:51:44.995Z,5.94
2022-11-25T01:54:16.036Z,5.88
2022-11-25T01:56:47.375Z,5.76
2022-11-25T01:59:17.285Z,5.71
2022-11-25T02:01:45.263Z,5.69
2022-11-25T02:04:15.269Z,5.63
2022-11-25T02:06:49.112Z,5.63
2022-11-25T02:09:19.015Z,5.63
2022-11-25T02:11:47.273Z,5.63
2022-11-25T02:14:18.004Z,5.64
2022-11-25T02:16:46.131Z,5.57
2022-11-25T02:19:19.288Z,5.58
2022-11-25T02:21:52.319Z,5.53
2022-11-25T02:24:29.115Z,5.53
2022-11-25T02:26:58.764Z,5.51
2022-11-25T02:29:27.416Z,5.44
2022-11-25T02:31:55.628Z,5.41
2022-11-25T02:34:26.293Z,5.36
2022-11-25T02:36:54.472Z,5.36
2022-11-25T02:39:22.900Z,5.40
2022-11-25T02:41:52.925Z,5.48
2022-11-25T02:44:22.598Z,5.55
2022-11-25T02:46:50.599Z,5.61
2022-11-25T02:49:20.479Z,5.67
2022-11-25T02:51:48.599Z,5.72
2022-11-25T02:54:18.830Z,5.78
2022-11-25T02:56:46.830Z,5.85
2022-11-25T02:59:15.748Z,5.89
2022-11-25T03:01:45.443Z,5.95
2022-11-25T03:04:13.697Z,5.98
2022-11-25T03:06:41.578Z,6.06
2022-11-25T03:09:09.753Z,6.13
2022-11-25T03:11:56.955Z,6.19
2022-11-25T03:14:25.690Z,6.23
2022-11-25T03:16:54.992Z,6.28
2022-11-25T03:19:27.880Z,6.30
2022-11-25T03:21:55.893Z,6.30
2022-11-25T03:24:24.129Z,6.31
2022-11-25T03:26:52.113Z,6.31
2022-11-25T03:29:20.520Z,6.32
2022-11-25T03:31:48.754Z,6.34
2022-11-25T03:34:18.296Z,6.36
2022-11-25T03:36:46.367Z,6.35
2022-11-25T03:39:14.630Z,6.32
2022-11-25T03:41:43.123Z,6.30
2022-11-25T03:44:11.294Z,6.28
2022-11-25T03:46:39.344Z,6.25
2022-11-25T03:49:08.726Z,6.21
2022-11-25T03:51:38.168Z,6.17
2022-11-25T03:54:06.694Z,6.17
2022-11-25T03:56:54.343Z,6.14
2022-11-25T03:59:22.498Z,6.17
2022-11-25T04:01:52.073Z,6.22
2022-11-25T04:04:20.311Z,6.25
2022-11-25T04:06:49.590Z,6.23
2022-11-25T04:09:18.939Z,6.27
2022-11-25T04:12:05.028Z,6.28
2022-11-25T04:14:43.752Z,6.29
2022-11-25T04:17:12.075Z,6.34
2022-11-25T04:19:40.408Z,6.40
2022-11-25T04:22:10.130Z,6.45
2022-11-25T04:24:40.833Z,6.46
2022-11-25T04:27:09.448Z,6.48
2022-11-25T04:29:37.658Z,6.50
2022-11-25T04:32:06.455Z,6.47
2022-11-25T04:34:35.040Z,6.50
2022-11-25T04:37:03.381Z,6.51
2022-11-25T04:39:32.984Z,6.57
2022-11-25T04:42:25.839Z,6.59
2022-11-25T04:45:20.967Z,6.60
2022-11-25T04:47:43.585Z,6.61
2022-11-25T04:50:15.546Z,6.62
2022-11-25T04:52:53.672Z,6.62
2022-11-25T04:55:23.188Z,6.60
2022-11-25T04:57:51.688Z,6.57
2022-11-25T05:00:20.994Z,6.57
2022-11-25T05:02:49.981Z,6.63
2022-11-25T05:05:21.858Z,6.64
2022-11-25T05:07:50.534Z,6.65
2022-11-25T05:10:22.664Z,6.65
2022-11-25T05:12:51.730Z,6.65
2022-11-25T05:15:22.952Z,6.66
2022-11-25T05:17:51.166Z,6.68
2022-11-25T05:20:30.345Z,6.69
2022-11-25T05:22:58.698Z,6.73
2022-11-25T05:25:28.362Z,6.77
2022-11-25T05:28:16.302Z,6.79
2022-11-25T05:30:45.239Z,6.76
2022-11-25T05:33:13.243Z,6.81
2022-11-25T05:35:41.450Z,6.79
2022-11-25T05:38:09.576Z,6.77
2022-11-25T05:40:40.105Z,6.74
2022-11-25T05:43:13.565Z,6.68
2022-11-25T05:45:42.630Z,6.61
2022-11-25T05:48:12.259Z,6.55
2022-11-25T05:50:40.670Z,6.56
2022-11-25T05:53:18.802Z,6.50
2022-11-25T05:55:57.122Z,6.41
2022-11-25T05:58:44.954Z,6.41
2022-11-25T06:01:14.622Z,6.36
2022-11-25T06:03:43.944Z,6.33
2022-11-25T06:06:13.572Z,6.38
2022-11-25T06:08:42.442Z,6.43
2022-11-25T06:11:13.378Z,6.46
2022-11-25T06:13:42.345Z,6.50
2022-11-25T06:16:11.868Z,6.53
2022-11-25T06:18:40.350Z,6.53
2022-11-25T06:21:11.056Z,6.57
2022-11-25T06:23:39.441Z,6.50
2022-11-25T06:26:09.197Z,6.50
2022-11-25T06:28:38.881Z,6.48
2022-11-25T06:31:08.486Z,6.45
2022-11-25T06:33:42.237Z,6.47
2022-11-25T06:36:16.844Z,6.47
2022-11-25T06:38:45.020Z,6.50
2022-11-25T06:41:13.466Z,6.43
2022-11-25T06:43:42.744Z,6.47
2022-11-25T06:46:12.563Z,6.47
2022-11-25T06:48:41.166Z,6.46
2022-11-25T06:51:12.013Z,6.47
2022-11-25T06:53:40.639Z,6.55
2022-11-25T06:56:11.536Z,6.57
2022-11-25T06:58:40.144Z,6.55
2022-11-25T07:01:14.057Z,6.54
2022-11-25T07:03:42.566Z,6.62
2022-11-25T07:06:11.924Z,6.69
2022-11-25T07:08:40.074Z,6.79
2022-11-25T07:11:09.575Z,6.87
2022-11-25T07:13:37.450Z,6.95
2022-11-25T07:16:07.356Z,7.03
2022-11-25T07:18:38.114Z,7.12
2022-11-25T07:21:07.989Z,7.18
2022-11-25T07:23:36.434Z,7.21
2022-11-25T07:26:05.729Z,7.25
2022-11-25T07:28:33.988Z,7.28
2022-11-25T07:31:23.230Z,7.30
2022-11-25T07:33:54.703Z,7.33
2022-11-25T07:36:23.930Z,7.35
2022-11-25T07:38:52.060Z,7.39
2022-11-25T07:41:22.426Z,7.41
2022-11-25T07:43:52.162Z,7.44
2022-11-25T07:46:27.341Z,7.46
2022-11-25T07:48:59.373Z,7.52
2022-11-25T07:51:29.732Z,7.55
2022-11-25T07:53:59.096Z,7.50
2022-11-25T07:56:27.844Z,7.52
2022-11-25T07:58:56.134Z,7.55
2022-11-25T08:01:24.602Z,7.53
2022-11-25T08:03:53.172Z,7.52
2022-11-25T08:06:24.608Z,7.53
2022-11-25T08:08:55.286Z,7.56
2022-11-25T08:11:25.666Z,7.63
2022-11-25T08:13:53.857Z,7.66
2022-11-25T08:16:23.749Z,7.70
2022-11-25T08:18:51.999Z,7.73
2022-11-25T08:21:20.234Z,7.77
2022-11-25T08:23:52.276Z,7.81
2022-11-25T08:26:22.344Z,7.85
2022-11-25T08:28:50.880Z,7.75
2022-11-25T08:31:21.047Z,7.78
2022-11-25T08:33:49.857Z,7.82
2022-11-25T08:36:18.669Z,7.78
2022-11-25T08:38:48.341Z,7.87
2022-11-25T08:41:20.005Z,7.92
2022-11-25T08:43:48.180Z,7.97
2022-11-25T08:46:19.570Z,7.99
2022-11-25T08:48:47.559Z,8.05
2022-11-25T08:51:17.768Z,8.06
2022-11-25T08:53:46.403Z,8.06
2022-11-25T08:56:15.521Z,8.04
2022-11-25T08:58:44.996Z,8.02
2022-11-25T09:01:14.350Z,8.02
2022-11-25T09:03:44.357Z,8.00
2022-11-25T09:06:13.354Z,7.99
2022-11-25T09:08:42.774Z,7.96
2022-11-25T09:11:11.518Z,7.91
2022-11-25T09:13:39.999Z,7.92
2022-11-25T09:16:10.847Z,7.85
2022-11-25T09:18:39.873Z,7.76
2022-11-25T09:21:10.617Z,7.72
2022-11-25T09:23:39.532Z,7.67
2022-11-25T09:26:08.750Z,7.73
2022-11-25T09:28:37.359Z,7.72
2022-11-25T09:31:10.751Z,7.72
2022-11-25T09:33:38.871Z,7.70
2022-11-25T09:36:07.640Z,7.76
2022-11-25T09:38:41.694Z,7.66
2022-11-25T09:41:42.496Z,7.67
2022-11-25T09:44:36.272Z,7.65
2022-11-25T09:47:10.603Z,7.69
2022-11-25T09:49:49.246Z,7.75
2022-11-25T09:52:20.786Z,7.79
2022-11-25T09:54:52.606Z,7.85
2022-11-25T09:57:24.253Z,7.93
2022-11-25T10:00:03.022Z,7.95
2022-11-25T10:02:45.750Z,7.99
2022-11-25T10:05:17.434Z,8.00
2022-11-25T10:07:49.700Z,8.02
2022-11-25T10:10:23.593Z,7.91
2022-11-25T10:12:52.529Z,7.97
2022-11-25T10:15:25.121Z,7.95
2022-11-25T10:17:57.175Z,7.98
2022-11-25T10:20:27.122Z,8.02
2022-11-25T10:22:57.182Z,7.99
2022-11-25T10:25:26.946Z,8.00
2022-11-25T10:27:58.445Z,7.99
2022-11-25T10:30:28.503Z,7.99
2022-11-25T10:33:04.934Z,8.04
2022-11-25T10:35:35.103Z,8.06
2022-11-25T10:38:05.041Z,8.10
2022-11-25T10:40:33.031Z,8.15
2022-11-25T10:43:02.832Z,8.23
2022-11-25T10:45:34.097Z,8.31
2022-11-25T10:48:19.576Z,8.39
2022-11-25T10:51:00.349Z,8.49
2022-11-25T10:53:30.698Z,8.59
2022-11-25T10:56:01.762Z,8.67
2022-11-25T10:58:33.107Z,8.74
2022-11-25T11:01:07.915Z,8.77
2022-11-25T11:03:37.490Z,8.83
2022-11-25T11:06:05.609Z,8.89
2022-11-25T11:08:39.371Z,8.91
2022-11-25T11:11:17.548Z,8.91
2022-11-25T11:13:46.443Z,8.94
2022-11-25T11:16:27.470Z,8.90
2022-11-25T11:18:57.621Z,8.91
2022-11-25T11:21:31.245Z,8.97
2022-11-25T11:24:00.676Z,8.99
2022-11-25T11:26:31.738Z,9.02
2022-11-25T11:29:02.569Z,9.03
2022-11-25T11:31:35.058Z,9.06
2022-11-25T11:34:14.933Z,9.07
2022-11-25T11:36:52.693Z,9.08
2022-11-25T11:39:29.778Z,9.12
2022-11-25T11:42:02.296Z,9.15
2022-11-25T11:44:36.534Z,9.18
2022-11-25T11:47:13.462Z,9.17
2022-11-25T11:50:01.302Z,9.15
2022-11-25T11:52:35.830Z,9.17
2022-11-25T11:55:18.097Z,9.18
2022-11-25T11:57:51.852Z,9.16
2022-11-25T12:00:21.125Z,9.22
2022-11-25T12:02:55.735Z,9.29
2022-11-25T12:05:27.697Z,9.38
2022-11-25T12:08:02.574Z,9.51
2022-11-25T12:10:33.629Z,9.74
2022-11-25T12:13:09.387Z,9.84
2022-11-25T12:15:42.665Z,10.06
2022-11-25T12:18:21.740Z,10.24
2022-11-25T12:20:55.408Z,10.34
2022-11-25T12:23:27.986Z,10.30
2022-11-25T12:26:00.048Z,10.30
2022-11-25T12:28:30.961Z,10.15
2022-11-25T12:31:05.606Z,10.15
2022-11-25T12:33:42.973Z,10.16
2022-11-25T12:36:16.228Z,10.19
2022-11-25T12:38:48.009Z,10.25
2022-11-25T12:41:23.827Z,10.32
2022-11-25T12:43:54.866Z,10.54
2022-11-25T12:46:30.918Z,10.57
2022-11-25T12:49:00.007Z,10.65
2022-11-25T12:51:41.298Z,10.72
2022-11-25T12:54:17.838Z,10.80
2022-11-25T12:57:12.656Z,10.92
2022-11-25T13:00:11.253Z,11.04
2022-11-25T13:03:00.484Z,11.07
2022-11-25T13:05:54.069Z,10.97
2022-11-25T13:08:36.534Z,10.94
2022-11-25T13:11:17.207Z,10.94
2022-11-25T13:13:52.830Z,11.02
2022-11-25T13:16:22.911Z,11.13
2022-11-25T13:18:51.576Z,11.28
2022-11-25T13:21:20.024Z,11.75
2022-11-25T13:23:52.003Z,11.97
2022-11-25T13:26:48.254Z,11.96
2022-11-25T13:29:59.861Z,11.80
2022-11-25T13:32:31.211Z,12.40
2022-11-25T13:35:32.701Z,12.88
2022-11-25T13:38:00.992Z,13.09
2022-11-25T13:40:38.377Z,13.72
2022-11-25T13:43:06.804Z,13.90
2022-11-25T13:45:38.355Z,13.91
2022-11-25T13:48:08.061Z,13.31
2022-11-25T13:51:03.363Z,12.63
2022-11-25T13:53:27.481Z,12.45
2022-11-25T13:56:13.600Z,12.35
2022-11-25T13:59:31.781Z,12.12
2022-11-25T14:02:34.020Z,11.78
2022-11-25T14:05:16.873Z,11.61
2022-11-25T14:07:50.512Z,11.55
2022-11-25T14:10:34.188Z,11.51
2022-11-25T14:13:12.384Z,11.26
2022-11-25T14:16:07.119Z,11.08
2022-11-25T14:19:35.089Z,11.00
2022-11-25T14:21:55.830Z,10.95
2022-11-25T14:24:35.423Z,10.98
2022-11-25T14:27:04.479Z,10.93
2022-11-25T14:29:40.989Z,10.86
2022-11-25T14:32:14.462Z,10.77
2022-11-25T14:34:44.301Z,10.77
2022-11-25T14:37:15.497Z,10.79
2022-11-25T14:39:48.123Z,10.80
2022-11-25T14:42:17.940Z,10.84
2022-11-25T14:44:48.577Z,10.80
2022-11-25T14:47:22.525Z,10.87
2022-11-25T14:50:05.752Z,10.94
2022-11-25T14:52:43.676Z,11.00
2022-11-25T14:55:12.756Z,11.08
2022-11-25T14:57:42.138Z,11.11
2022-11-25T15:00:12.468Z,11.10
2022-11-25T15:02:43.459Z,11.09
2022-11-25T15:05:17.841Z,11.05
2022-11-25T15:07:57.137Z,11.02
2022-11-25T15:10:37.926Z,10.93
2022-11-25T15:13:12.531Z,10.85
2022-11-25T15:15:41.145Z,10.75
2022-11-25T15:18:17.246Z,10.67
2022-11-25T15:20:48.731Z,10.57
2022-11-25T15:23:20.742Z,10.48
2022-11-25T15:25:53.133Z,10.41
2022-11-25T15:28:21.502Z,10.34
2022-11-25T15:31:00.323Z,10.30
2022-11-25T15:33:30.776Z,10.24
2022-11-25T15:35:59.161Z,10.23
2022-11-25T15:38:40.932Z,10.22
2022-11-25T15:41:30.770Z,10.18
2022-11-25T15:44:01.547Z,10.16
2022-11-25T15:46:31.275Z,10.12
2022-11-25T15:49:03.549Z,10.08
2022-11-25T15:51:35.056Z,10.04
2022-11-25T15:54:07.117Z,10.03
2022-11-25T15:56:39.032Z,9.95
2022-11-25T15:59:07.031Z,9.90
2022-11-25T16:01:35.303Z,9.80
2022-11-25T16:04:20.856Z,9.77
2022-11-25T16:06:56.135Z,9.74
2022-11-25T16:09:25.328Z,9.72
2022-11-25T16:11:53.683Z,9.73
2022-11-25T16:14:30.585Z,9.72
2022-11-25T16:17:02.645Z,9.71
2022-11-25T16:19:37.779Z,9.70
2022-11-25T16:22:06.722Z,9.67
2022-11-25T16:24:47.111Z,9.66
2022-11-25T16:27:18.255Z,9.66
2022-11-25T16:29:52.278Z,9.67
2022-11-25T16:32:22.314Z,9.64
2022-11-25T16:34:51.746Z,9.67
2022-11-25T16:37:19.933Z,9.72
2022-11-25T16:39:47.875Z,9.77
2022-11-25T16:42:20.968Z,9.75
2022-11-25T16:44:50.348Z,9.75
2022-11-25T16:47:19.570Z,9.70
2022-11-25T16:49:47.774Z,9.68
2022-11-25T16:52:17.325Z,9.67
2022-11-25T16:54:46.057Z,9.63
2022-11-25T16:57:18.524Z,9.60
2022-11-25T16:59:47.214Z,9.57
2022-11-25T17:02:19.083Z,9.46
2022-11-25T17:04:47.797Z,9.39
2022-11-25T17:07:34.534Z,9.31
2022-11-25T17:10:02.713Z,9.21
2022-11-25T17:12:32.823Z,9.16
2022-11-25T17:15:01.335Z,9.09
2022-11-25T17:17:29.839Z,9.04
2022-11-25T17:19:58.012Z,8.99
2022-11-25T17:22:32.175Z,8.99
2022-11-25T17:25:02.707Z,8.99
2022-11-25T17:27:32.757Z,8.99
2022-11-25T17:30:03.994Z,9.02
2022-11-25T17:32:32.947Z,9.05
2022-11-25T17:35:00.870Z,9.03
2022-11-25T17:37:31.036Z,9.05
2022-11-25T17:39:59.000Z,9.01
2022-11-25T17:42:30.062Z,9.01
2022-11-25T17:44:58.152Z,8.97
2022-11-25T17:47:26.413Z,8.97
2022-11-25T17:49:56.268Z,8.94
2022-11-25T17:52:26.876Z,8.92
2022-11-25T17:54:56.198Z,8.90
2022-11-25T17:57:29.058Z,8.86
2022-11-25T17:59:57.463Z,8.86
2022-11-25T18:02:25.745Z,8.83
2022-11-25T18:04:55.073Z,8.80
2022-11-25T18:07:23.292Z,8.82
2022-11-25T18:09:51.324Z,8.82
2022-11-25T18:12:23.950Z,8.83
2022-11-25T18:14:51.878Z,8.85
2022-11-25T18:17:20.207Z,8.88
2022-11-25T18:19:54.516Z,8.89
2022-11-25T18:22:24.707Z,8.87
2022-11-25T18:24:53.216Z,8.88
2022-11-25T18:27:24.358Z,8.92
2022-11-25T18:29:52.854Z,8.94
2022-11-25T18:32:21.243Z,8.95
2022-11-25T18:34:49.199Z,8.99
2022-11-25T18:37:17.386Z,9.03
2022-11-25T18:39:45.399Z,9.05
2022-11-25T18:42:25.280Z,9.08
2022-11-25T18:44:53.769Z,9.10
2022-11-25T18:47:21.978Z,9.14
2022-11-25T18:49:55.119Z,9.17
2022-11-25T18:52:24.934Z,9.20
2022-11-25T18:54:52.937Z,9.22
2022-11-25T18:57:21.375Z,9.24
2022-11-25T19:00:17.018Z,9.27
2022-11-25T19:02:38.894Z,9.23
2022-11-25T19:05:16.500Z,9.23
2022-11-25T19:07:44.995Z,9.25
2022-11-25T19:10:14.018Z,9.23
2022-11-25T19:12:44.397Z,9.23
2022-11-25T19:15:16.485Z,9.24
2022-11-25T19:17:46.008Z,9.20
2022-11-25T19:20:15.700Z,9.15
2022-11-25T19:22:43.931Z,9.14
2022-11-25T19:25:12.193Z,9.19
2022-11-25T19:27:42.051Z,9.20
2022-11-25T19:30:21.185Z,9.23
2022-11-25T19:32:51.859Z,9.23
2022-11-25T19:35:24.178Z,9.20
2022-11-25T19:37:52.314Z,9.17
2022-11-25T19:40:22.246Z,9.12
2022-11-25T19:42:50.492Z,9.08
2022-11-25T19:45:21.230Z,9.04
2022-11-25T19:47:51.241Z,8.99
2022-11-25T19:50:22.695Z,9.01
2022-11-25T19:52:51.082Z,9.02
2022-11-25T19:55:21.478Z,8.99
2022-11-25T19:57:50.640Z,9.03
2022-11-25T20:00:21.496Z,9.05
2022-11-25T20:02:51.141Z,9.09
2022-11-25T20:05:23.365Z,9.09
2022-11-25T20:07:51.647Z,9.14
2022-11-25T20:10:25.437Z,9.14
2022-11-25T20:12:54.445Z,9.16
2022-11-25T20:15:23.928Z,9.17
2022-11-25T20:17:54.569Z,9.16
2022-11-25T20:20:24.842Z,9.14
2022-11-25T20:22:56.159Z,9.12
2022-11-25T20:25:24.775Z,9.11
2022-11-25T20:27:53.064Z,9.08
2022-11-25T20:30:24.497Z,9.06
2022-11-25T20:32:53.171Z,9.06
2022-11-25T20:35:21.813Z,9.05
2022-11-25T20:37:57.390Z,9.08
2022-11-25T20:40:29.598Z,9.12
2022-11-25T20:42:58.296Z,9.14
2022-11-25T20:45:27.605Z,9.15
2022-11-25T20:47:55.869Z,9.14
2022-11-25T20:50:23.733Z,9.14
2022-11-25T20:52:51.981Z,9.12
2022-11-25T20:55:21.542Z,9.11
2022-11-25T20:57:50.892Z,9.10
2022-11-25T21:00:20.870Z,9.10
2022-11-25T21:02:50.524Z,9.11
2022-11-25T21:05:19.216Z,9.11
2022-11-25T21:07:48.344Z,9.07
2022-11-25T21:10:26.045Z,9.05
2022-11-25T21:12:54.678Z,9.04
2022-11-25T21:15:24.298Z,9.01
2022-11-25T21:17:54.021Z,9.02
2022-11-25T21:20:21.955Z,9.04
2022-11-25T21:22:52.054Z,9.08
2022-11-25T21:25:21.639Z,9.09
2022-11-25T21:27:52.013Z,9.12
2022-11-25T21:30:20.982Z,9.09
2022-11-25T21:32:49.200Z,9.10
2022-11-25T21:35:18.432Z,9.10
2022-11-25T21:37:46.719Z,9.10
2022-11-25T21:40:31.376Z,9.06
2022-11-25T21:42:59.664Z,9.06
2022-11-25T21:45:27.650Z,9.00
2022-11-25T21:47:55.872Z,8.95
2022-11-25T21:50:29.168Z,8.92
2022-11-25T21:52:57.511Z,8.90
2022-11-25T21:55:25.640Z,8.90
2022-11-25T21:57:53.946Z,8.88
2022-11-25T22:00:24.463Z,8.82
2022-11-25T22:02:52.970Z,8.75
2022-11-25T22:05:25.416Z,8.71
2022-11-25T22:07:55.653Z,8.63
2022-11-25T22:10:23.798Z,8.53
2022-11-25T22:12:52.009Z,8.48
2022-11-25T22:15:21.315Z,8.41
2022-11-25T22:17:50.867Z,8.36
2022-11-25T22:20:30.143Z,8.34
2022-11-25T22:23:00.134Z,8.30
2022-11-25T22:25:30.432Z,8.25
2022-11-25T22:27:58.663Z,8.22
2022-11-25T22:30:26.554Z,8.19
2022-11-25T22:32:59.965Z,8.16
2022-11-25T22:35:28.194Z,8.12
2022-11-25T22:37:56.358Z,8.09
2022-11-25T22:40:25.831Z,8.04
2022-11-25T22:43:02.140Z,8.00
2022-11-25T22:45:43.443Z,7.96
2022-11-25T22:48:17.116Z,7.93
2022-11-25T22:50:46.298Z,7.89
2022-11-25T22:53:26.272Z,7.87
2022-11-25T22:56:17.558Z,7.86
2022-11-25T22:58:48.614Z,7.86
2022-11-25T23:01:22.702Z,7.84
2022-11-25T23:03:57.374Z,7.82
2022-11-25T23:06:32.606Z,7.79
2022-11-25T23:09:02.896Z,7.77
2022-11-25T23:11:37.055Z,7.74
2022-11-25T23:14:10.318Z,7.73
2022-11-25T23:16:45.601Z,7.73
2022-11-25T23:19:18.370Z,7.72
2022-11-25T23:21:53.124Z,7.64
2022-11-25T23:24:22.313Z,7.62
2022-11-25T23:26:52.483Z,7.62
2022-11-25T23:29:21.300Z,7.56
2022-11-25T23:31:49.452Z,7.57
2022-11-25T23:34:17.854Z,7.56
2022-11-25T23:36:50.198Z,7.54
2022-11-25T23:39:20.794Z,7.52
2022-11-25T23:41:49.071Z,7.50
2022-11-25T23:44:24.537Z,7.46
2022-11-25T23:46:53.299Z,7.43
2022-11-25T23:49:25.103Z,7.42
2022-11-25T23:52:07.771Z,7.41
2022-11-25T23:54:40.914Z,7.37
2022-11-25T23:57:16.203Z,7.32
2022-11-25T23:59:48.796Z,7.29
